Mehrabad International Airport
OIII : now visible

Airfield :











YOU CAN JOIN US ON...

 
LOGIN :

Register | Disclaimer

   EN    FR    IT 

 









Legend :    VFR   Marginal VFR   IFR   Intensive IFR   Very Intensive IFR
Visi :
Ceiling :
>= 8 km
>= 3000ft
5 to 8 km
1000 to 3000 ft
1500m to 5 km
500 to 1000 ft
800 to 1500m
200 to 500 ft
< 800m
< 200 ft
Symbols :   Thunderstorms  Fog  Heavy snow  Heavy precipitations  Wind > 20 kt






- Airport Elevation : 3962 ft
- IATA code : THR


OIII - Mehrabad International

CURRENT METAR :
  • 310500Z 25004KT 9999 FEW040 SCT200 32/M01 Q1015 A3000

EXPIRED METARs :
  • 310430Z 16004KT 9999 FEW040 SCT200 31/M00 Q1015 A2999
  • 310400Z 20004KT CAVOK 30/01 Q1015 A2999 NOSIG
  • 310330Z 00000KT 9999 FEW100 30/M00 Q1015 A2998
  • 310300Z 36004KT 9999 FEW100 27/02 Q1015 A2998
  • 310230Z 03004KT CAVOK 26/M01 Q1015 A2997

TAF TAF OIII
Valid from the 31 at 00:00 until the 01 at 06:00 UTC


302300Z 3100/0106 11008KT 7000 FEW035
TEMPO 3109/3118 24012G20KT FEW030CB SCT035 SCT100
TEMPO 0100/0106 32012G20KT
OIIX FIR / Asia



MET'MAP, your aeronautical weather chart ! - Copyright ORBIFLY December 2007 - Disclaimer

ORBIFLY MET'MAP TEAM :

Programming & Development : Alexandra Zaïnal
Concept & original design : Baudouin d'Aumeries
Assistance for programming : Marc-Olivier Méhu
Technical & hardware support : Manuel Goepfert

Contact : metmap@orbifly.com




SOURCES & CREDITS :

   NOAA       Earth
Advisory